Station: Tindal

  Atmospheric Gas Attenuation - ITU Rec 676-11   --------------- db/100km ---------------
Date Time Temp RH % AH g/m3 Dew Point Wind Direction Speed kph Gust kph Barometer mB Rainfall Since 9am 24GHz 47GHz 76GHz 122GHz 134GHz 241GHz
11 21:30 27.2 66 17.18 20.3 6 7 1010.1 0 36.9 35.6 66.7 176.2 191.2 664.3
11 21:20 27.1 66 17.08 20.4 6 7 1010.1 0 36.7 35.5 66.3 175.3 190.1 660.2
11 21:10 27.3 66 17.27 20.4 7 7 1010.1 0 37.1 35.7 67.0 177.1 192.3 667.9
11 21:00 27.6 63 16.76 19.9 9 11 1009.9 0 36.0 34.7 64.5 170.5 184.3 640.2
11 20:50 27.8 64 17.22 20.4 9 9 1009.9 0 36.9 35.4 66.3 175.3 190.3 661.0
11 20:40 27.8 65 17.48 20.6 7 7 1009.8 0 37.5 35.9 67.4 178.3 193.9 673.8
11 20:30 28 66 17.95 21.1 7 7 1009.6 0 38.5 36.6 69.3 183.3 200.1 695.4
11 20:20 28.2 63 17.32 20.7 6 7 1009.5 0 37.1 35.4 66.4 175.5 190.6 662.3
11 20:10 28.3 62 17.14 20.3 4 6 1009.4 0 36.7 35.0 65.5 173.2 187.8 652.6
11 20:00 28.4 61 16.96 20.2 6 7 1009.3 0 36.3 34.7 64.6 170.9 185.1 643.0
11 19:50 28.6 58 16.3 19.5 6 6 1009.1 0 34.9 33.5 61.7 163.1 175.5 609.6
11 19:40 28.9 57 16.29 19.5 7 9 1009 0 34.9 33.4 61.4 162.3 174.6 606.7
11 19:30 28.9 55 15.71 19.2 9 11 1008.9 0 33.7 32.4 59.0 155.9 166.8 579.4
11 19:20 29.1 54 15.6 19.1 9 9 1008.8 0 33.4 32.1 58.4 154.3 164.9 572.8
11 19:10 29.8 51 15.3 18.6 7 9 1008.7 0 32.8 31.4 56.7 149.8 159.5 554.0
11 19:00 30.4 48 14.88 18.2 11 13 1008.6 0 31.8 30.5 54.6 144.2 152.8 530.9
11 18:50 30.7 47 14.8 18.1 9 11 1008.5 0 31.6 30.3 54.1 142.8 151.2 525.3
11 18:40 31.1 46 14.8 18.1 9 11 1008.5 0 31.6 30.1 53.8 142.1 150.5 522.6
11 18:30 31.6 44 14.54 17.9 9 11 1008.5 0 31.0 29.6 52.5 138.6 146.3 508.0
11 18:20 32.2 42 14.34 17.7 11 13 1008.3 0 30.6 29.0 51.3 135.5 142.7 495.5
11 18:10 32.5 43 14.91 18.3 9 11 1008.3 0 31.7 29.8 53.3 140.7 149.1 518.2
11 18:00 32.9 41 14.52 17.9 11 15 1008.2 0 30.9 29.1 51.5 136.1 143.6 498.8
11 17:50 33.1 41 14.68 18.1 11 13 1008.1 0 31.2 29.3 52.0 137.4 145.2 504.4
11 17:40 33 42 14.96 18.4 13 15 1008 0 31.8 29.7 53.1 140.3 148.8 517.0
11 17:30 32.8 43 15.15 18.6 11 15 1008 0 32.2 30.1 54.0 142.6 151.5 526.6
11 17:20 33.2 40 14.4 17.8 13 13 1007.9 0 30.6 28.8 50.9 134.4 141.6 491.8
11 17:10 33.8 37 13.74 17.1 15 17 1007.8 0 29.2 27.6 48.1 127.0 132.6 460.6
11 17:00 34.4 36 13.8 17.2 19 26 1007.8 0 29.3 27.5 48.0 126.6 132.3 459.6
11 16:50 35 34 13.45 17.2 19 20 1007.7 0 28.5 26.9 46.4 122.4 127.3 442.0
11 16:40 35 34 13.45 17.2 20 26 1007.7 0 28.5 26.9 46.4 122.4 127.3 442.0
11 16:30 35.4 35 14.13 17.6 19 24 1007.7 0 29.9 27.7 48.5 128.2 134.5 467.4
11 16:20 35.5 32 12.99 16.3 20 22 1007.6 0 27.6 26.1 44.5 117.4 121.2 421.0
11 16:10 36.5 30 12.83 16.6 19 22 1007.6 0 27.2 25.5 43.4 114.5 118.0 409.7
11 16:00 36.1 32 13.4 16.8 19 28 1007.5 0 28.4 26.5 45.6 120.3 124.9 434.0
11 15:50 36.4 31 13.18 17 15 19 1007.5 0 27.9 26.1 44.6 117.8 122.0 423.8
11 15:40 35.9 34 14.09 17.6 15 17 1007.5 0 29.8 27.5 48.1 127.0 133.2 462.8
11 15:30 35.3 33 13.26 17 13 19 1007.5 0 28.1 26.5 45.5 120.2 124.6 432.7
11 15:20 35.4 33 13.33 17.1 9 13 1007.6 0 28.3 26.6 45.7 120.7 125.2 435.0
11 15:10 35.2 34 13.59 17 13 15 1007.7 0 28.8 27.0 46.8 123.4 128.6 446.6
11 15:00 35.4 35 14.13 18 13 19 1007.7 0 29.9 27.7 48.5 128.2 134.5 467.4
11 14:50 35.3 33 13.26 17 11 13 1007.8 0 28.1 26.5 45.5 120.2 124.6 432.8
11 14:40 35.3 33 13.26 17 9 11 1007.9 0 28.1 26.5 45.5 120.2 124.6 432.9
11 14:30 35.1 31 12.33 15.9 15 22 1008 0 26.2 25.3 42.5 112.0 114.4 397.2
11 14:20 35.6 32 13.06 16.4 19 24 1008 0 27.7 26.1 44.7 117.9 121.9 423.4
11 14:10 36.4 32 13.61 17.5 7 11 1008.1 0 28.8 26.7 46.2 121.8 126.9 441.0
11 14:00 35.8 32 13.19 17 9 15 1008.3 0 28.0 26.3 45.0 118.9 123.1 427.6
11 13:50 35.6 32 13.06 16.8 15 15 1008.5 0 27.7 26.2 44.7 118.0 122.0 423.5
11 13:40 36 33 13.75 17.2 13 15 1008.5 0 29.1 27.0 46.9 123.8 129.2 448.9
11 13:30 35.6 33 13.47 17.3 13 20 1008.7 0 28.5 26.7 46.1 121.8 126.6 439.9
11 13:20 36.1 31 12.98 16.3 9 13 1008.8 0 27.5 25.9 44.2 116.6 120.3 417.9
11 13:10 36.3 32 13.54 17 17 22 1008.9 0 28.6 26.6 46.0 121.4 126.4 439.0
11 13:00 36.6 31 13.32 17.2 4 7 1009.1 0 28.2 26.2 45.1 119.0 123.4 428.8
11 12:50 36.1 33 13.82 17.3 4 6 1009.3 0 29.2 27.1 47.1 124.4 129.9 451.4
11 12:40 34.9 36 14.17 18 6 9 1009.5 0 30.0 28.0 49.1 129.6 136.0 472.6
11 12:30 35.3 36 14.46 18 9 15 1009.6 0 30.6 28.3 49.9 131.7 138.7 482.2
11 12:20 35.2 34 13.59 17.4 9 11 1009.8 0 28.8 27.1 46.8 123.6 128.8 447.3
11 12:10 35.1 36 14.31 17.8 9 11 1010 0 30.3 28.1 49.5 130.7 137.4 477.3
11 12:00 35 34 13.45 17.2 7 13 1010.2 0 28.5 26.9 46.5 122.7 127.5 442.9
11 11:50 35.3 37 14.87 18.8 7 11 1010.3 0 31.4 28.9 51.4 135.8 143.7 499.5
11 11:40 34.2 39 14.79 18.3 9 11 1010.5 0 31.3 29.2 51.8 136.9 144.8 503.1
11 11:30 34.7 39 15.19 19.1 7 19 1010.5 0 32.1 29.6 53.0 140.0 148.7 516.8
11 11:20 34 39 14.64 18.1 4 6 1010.7 0 31.1 29.0 51.4 135.8 143.3 498.0
11 11:10 33.8 43 15.97 19.8 9 13 1010.8 0 33.8 31.1 56.6 149.5 160.1 556.7
11 11:00 33.7 44 16.26 20.1 7 15 1011 0 34.4 31.6 57.8 152.7 164.0 570.3
11 10:50 32.7 49 17.17 20.9 11 13 1011 0 36.4 33.4 62.1 164.3 178.0 618.9
11 10:40 32.4 54 18.63 21.9 7 9 1011 0 39.4 36.0 68.4 180.9 198.4 689.9
11 10:30 32 53 17.9 21.5 11 17 1011.2 0 38.0 34.9 65.7 173.8 189.5 658.7
11 10:20 31.9 53 17.8 21.4 9 13 1011.2 0 37.8 34.8 65.4 172.9 188.3 654.8
11 10:10 31.5 55 18.08 21.4 7 9 1011.3 0 38.4 35.4 66.9 176.9 193.2 671.6
11 10:00 31.2 58 18.77 22.2 4 9 1011.5 0 39.8 36.7 70.1 185.4 203.5 707.7
11 09:50 30.8 58 18.37 21.6 2 6 1011.2 0 39.1 36.2 68.7 181.8 199.0 691.7
11 09:40 30.4 62 19.22 22.3 6 9 1011.1 0 40.9 37.9 72.8 192.5 212.1 737.2
11 09:30 29.9 62 18.7 21.8 7 11 1011.3 0 39.8 37.2 71.0 187.7 206.0 716.2
11 09:20 29.7 65 19.4 22.4 9 11 1011.1 0 41.3 38.5 74.2 196.4 216.6 753.1
11 09:10 29.3 66 19.27 22.3 7 9 1011.1 0 41.1 38.4 74.0 195.9 215.9 750.4
11 09:00 28.9 66 18.86 21.9 7 11 1011.1 0 40.3 37.9 72.6 192.0 211.0 733.5
11 08:50 28.6 67 18.83 21.9 6 7 1011.1 0 40.2 38.0 72.7 192.4 211.4 734.9
11 08:40 28.3 68 18.8 21.8 6 7 1011 0 40.2 38.0 72.9 192.8 211.8 736.2
11 08:30 27.9 69 18.66 21.7 6 7 1011.1 0 40.0 38.0 72.6 192.2 210.9 732.9
11 08:20 27.7 70 18.73 21.7 4 6 1010.9 0 40.1 38.2 73.1 193.5 212.5 738.3
11 08:10 26.8 72 18.33 21.3 4 6 1010.9 0 39.4 37.9 72.2 190.9 209.1 726.4
11 08:00 26.6 73 18.38 21.4 0 6 1011 0 39.5 38.0 72.6 192.0 210.4 731.0
11 07:50 26 76 18.5 21.4 0 0 1010.8 0 39.8 38.5 73.7 195.0 213.9 742.9
11 07:40 24.8 78 17.75 20.7 0 0 1010.6 0 38.3 37.7 71.4 188.8 205.9 715.2
11 07:30 24.1 82 17.94 20.8 0 0 1010.5 0 38.8 38.3 72.9 192.9 210.7 731.8
11 07:20 23.6 84 17.86 20.7 0 0 1010.4 0 38.7 38.4 73.0 193.2 210.9 732.3
11 07:10 23 85 17.47 20.3 0 0 1010.3 0 37.9 38.0 71.8 189.8 206.6 717.3
11 07:00 22.9 86 17.57 20.4 4 7 1010.3 0 38.1 38.2 72.3 191.3 208.4 723.6
11 06:50 22.6 87 17.48 20.3 0 0 1010.3 0 38.0 38.2 72.2 190.9 207.9 721.6
11 06:40 22.6 86 17.28 20.1 0 0 1010.2 0 37.6 37.8 71.3 188.4 204.8 710.9
11 06:30 22.7 86 17.37 20.2 0 0 1010.1 0 37.7 37.9 71.6 189.3 205.9 714.7
11 06:20 22.6 88 17.68 20.5 0 0 1010 0 38.4 38.5 73.1 193.4 210.9 732.2
11 06:10 22.6 88 17.68 20.5 0 0 1010 0 38.4 38.5 73.1 193.4 210.9 732.2
11 06:00 22.5 88 17.58 20.4 0 0 1009.9 0 38.2 38.4 72.7 192.4 209.6 727.7
11 05:50 22.6 89 17.88 20.7 0 0 1009.8 0 38.8 38.9 74.1 195.9 214.0 742.9
11 05:40 22.5 89 17.78 20.6 0 0 1009.7 0 38.6 38.7 73.7 194.9 212.7 738.4
11 04:50 22.2 90 17.67 20.5 7 7 1009.5 0 38.4 38.7 73.4 194.2 211.8 735.3
11 04:40 22.4 90 17.87 20.7 6 6 1009.5 0 38.8 39.0 74.2 196.2 214.4 744.1
11 04:30 22.5 90 17.98 20.8 7 9 1009.4 0 39.1 39.1 74.6 197.4 215.8 749.0
11 04:20 22.5 88 17.58 20.4 7 9 1009.5 0 38.2 38.4 72.7 192.3 209.6 727.5

Last Refresh: 11-Apr-2021 21:41:18

Bureau of Meteorology